sensor_id;sensor_type;location;lat;lon;timestamp;P1;durP1;ratioP1;P2;durP2;ratioP2
42598;SDS011;28225;42.714;23.860;2023-01-15T00:00:46;31.15;;;19.25;;
42598;SDS011;28225;42.714;23.860;2023-01-15T00:03:11;35.88;;;18.38;;
42598;SDS011;28225;42.714;23.860;2023-01-15T00:05:37;28.08;;;16.42;;
42598;SDS011;28225;42.714;23.860;2023-01-15T00:08:02;26.50;;;15.80;;
42598;SDS011;28225;42.714;23.860;2023-01-15T00:10:28;30.23;;;17.42;;
42598;SDS011;28225;42.714;23.860;2023-01-15T00:12:53;25.30;;;15.35;;
42598;SDS011;28225;42.714;23.860;2023-01-15T00:15:19;28.52;;;16.77;;
42598;SDS011;28225;42.714;23.860;2023-01-15T00:17:44;27.90;;;16.00;;
42598;SDS011;28225;42.714;23.860;2023-01-15T00:20:10;25.85;;;15.13;;
42598;SDS011;28225;42.714;23.860;2023-01-15T00:22:36;21.67;;;13.27;;
42598;SDS011;28225;42.714;23.860;2023-01-15T00:25:01;18.45;;;11.30;;
42598;SDS011;28225;42.714;23.860;2023-01-15T00:27:45;21.45;;;12.48;;
42598;SDS011;28225;42.714;23.860;2023-01-15T00:30:12;36.90;;;16.17;;
42598;SDS011;28225;42.714;23.860;2023-01-15T00:32:39;61.17;;;32.40;;
42598;SDS011;28225;42.714;23.860;2023-01-15T00:35:06;38.65;;;22.38;;
42598;SDS011;28225;42.714;23.860;2023-01-15T00:37:32;45.20;;;24.48;;
42598;SDS011;28225;42.714;23.860;2023-01-15T00:39:57;40.92;;;24.55;;
42598;SDS011;28225;42.714;23.860;2023-01-15T00:42:22;46.60;;;25.08;;
42598;SDS011;28225;42.714;23.860;2023-01-15T00:44:48;36.20;;;21.23;;
42598;SDS011;28225;42.714;23.860;2023-01-15T00:47:13;29.33;;;16.20;;
42598;SDS011;28225;42.714;23.860;2023-01-15T00:49:42;34.05;;;17.05;;
42598;SDS011;28225;42.714;23.860;2023-01-15T00:52:08;38.53;;;17.98;;
42598;SDS011;28225;42.714;23.860;2023-01-15T00:54:34;30.42;;;19.75;;
42598;SDS011;28225;42.714;23.860;2023-01-15T00:56:59;34.00;;;20.05;;
42598;SDS011;28225;42.714;23.860;2023-01-15T00:59:25;29.88;;;17.67;;
42598;SDS011;28225;42.714;23.860;2023-01-15T01:01:50;29.50;;;18.40;;
42598;SDS011;28225;42.714;23.860;2023-01-15T01:04:16;32.35;;;19.52;;
42598;SDS011;28225;42.714;23.860;2023-01-15T01:06:41;32.78;;;19.80;;
42598;SDS011;28225;42.714;23.860;2023-01-15T01:09:08;43.97;;;27.20;;
42598;SDS011;28225;42.714;23.860;2023-01-15T01:11:38;39.10;;;23.90;;
42598;SDS011;28225;42.714;23.860;2023-01-15T01:14:03;37.50;;;21.58;;
42598;SDS011;28225;42.714;23.860;2023-01-15T01:16:31;39.60;;;25.13;;
42598;SDS011;28225;42.714;23.860;2023-01-15T01:19:05;56.28;;;29.77;;
42598;SDS011;28225;42.714;23.860;2023-01-15T01:21:39;40.00;;;23.73;;
42598;SDS011;28225;42.714;23.860;2023-01-15T01:24:06;47.33;;;25.38;;
42598;SDS011;28225;42.714;23.860;2023-01-15T01:26:32;45.80;;;25.35;;
42598;SDS011;28225;42.714;23.860;2023-01-15T01:28:58;37.17;;;22.02;;
42598;SDS011;28225;42.714;23.860;2023-01-15T01:31:24;40.08;;;20.75;;
42598;SDS011;28225;42.714;23.860;2023-01-15T01:33:50;33.80;;;19.23;;
42598;SDS011;28225;42.714;23.860;2023-01-15T01:36:18;36.03;;;21.50;;
42598;SDS011;28225;42.714;23.860;2023-01-15T01:38:47;37.63;;;22.10;;
42598;SDS011;28225;42.714;23.860;2023-01-15T01:41:18;50.90;;;29.90;;
42598;SDS011;28225;42.714;23.860;2023-01-15T01:46:57;45.33;;;25.42;;
42598;SDS011;28225;42.714;23.860;2023-01-15T01:49:23;41.30;;;24.42;;
42598;SDS011;28225;42.714;23.860;2023-01-15T01:51:51;58.92;;;33.90;;
42598;SDS011;28225;42.714;23.860;2023-01-15T01:54:41;59.00;;;34.22;;
42598;SDS011;28225;42.714;23.860;2023-01-15T01:57:08;80.35;;;43.40;;
42598;SDS011;28225;42.714;23.860;2023-01-15T01:59:33;67.90;;;36.63;;
42598;SDS011;28225;42.714;23.860;2023-01-15T02:01:59;67.03;;;35.70;;
42598;SDS011;28225;42.714;23.860;2023-01-15T02:04:25;68.03;;;37.80;;
42598;SDS011;28225;42.714;23.860;2023-01-15T02:06:51;57.03;;;34.15;;
42598;SDS011;28225;42.714;23.860;2023-01-15T02:09:16;60.45;;;35.65;;
42598;SDS011;28225;42.714;23.860;2023-01-15T02:11:42;51.78;;;28.83;;
42598;SDS011;28225;42.714;23.860;2023-01-15T02:16:50;58.00;;;33.72;;
42598;SDS011;28225;42.714;23.860;2023-01-15T02:27:40;52.45;;;28.33;;
42598;SDS011;28225;42.714;23.860;2023-01-15T02:33:04;57.45;;;31.98;;
42598;SDS011;28225;42.714;23.860;2023-01-15T02:38:19;61.42;;;33.60;;
42598;SDS011;28225;42.714;23.860;2023-01-15T02:40:46;60.33;;;32.38;;
42598;SDS011;28225;42.714;23.860;2023-01-15T02:43:12;60.67;;;33.55;;
42598;SDS011;28225;42.714;23.860;2023-01-15T02:45:40;60.90;;;34.20;;
42598;SDS011;28225;42.714;23.860;2023-01-15T02:48:11;65.65;;;35.00;;
42598;SDS011;28225;42.714;23.860;2023-01-15T02:51:12;62.25;;;36.65;;
42598;SDS011;28225;42.714;23.860;2023-01-15T02:53:40;60.75;;;33.90;;
42598;SDS011;28225;42.714;23.860;2023-01-15T02:56:29;53.50;;;32.17;;
42598;SDS011;28225;42.714;23.860;2023-01-15T02:58:55;59.70;;;32.38;;
42598;SDS011;28225;42.714;23.860;2023-01-15T03:01:25;47.65;;;29.17;;
42598;SDS011;28225;42.714;23.860;2023-01-15T03:03:58;47.53;;;27.13;;
42598;SDS011;28225;42.714;23.860;2023-01-15T03:09:10;56.30;;;33.10;;
42598;SDS011;28225;42.714;23.860;2023-01-15T03:11:38;54.33;;;31.85;;
42598;SDS011;28225;42.714;23.860;2023-01-15T03:14:19;55.92;;;29.30;;
42598;SDS011;28225;42.714;23.860;2023-01-15T03:16:51;68.78;;;34.72;;
42598;SDS011;28225;42.714;23.860;2023-01-15T03:27:10;77.72;;;41.22;;
42598;SDS011;28225;42.714;23.860;2023-01-15T03:29:37;74.75;;;39.22;;
42598;SDS011;28225;42.714;23.860;2023-01-15T03:32:05;60.47;;;35.40;;
42598;SDS011;28225;42.714;23.860;2023-01-15T03:34:33;60.58;;;31.55;;
42598;SDS011;28225;42.714;23.860;2023-01-15T03:37:03;60.53;;;32.83;;
42598;SDS011;28225;42.714;23.860;2023-01-15T03:39:29;49.35;;;29.73;;
42598;SDS011;28225;42.714;23.860;2023-01-15T03:42:09;47.97;;;26.70;;
42598;SDS011;28225;42.714;23.860;2023-01-15T03:58:25;59.90;;;30.15;;
42598;SDS011;28225;42.714;23.860;2023-01-15T04:00:59;72.90;;;34.63;;
42598;SDS011;28225;42.714;23.860;2023-01-15T04:03:26;81.00;;;39.08;;
42598;SDS011;28225;42.714;23.860;2023-01-15T04:05:54;77.15;;;37.45;;
42598;SDS011;28225;42.714;23.860;2023-01-15T04:08:21;73.90;;;40.22;;
42598;SDS011;28225;42.714;23.860;2023-01-15T04:10:54;81.07;;;40.83;;
42598;SDS011;28225;42.714;23.860;2023-01-15T04:13:20;75.95;;;40.00;;
42598;SDS011;28225;42.714;23.860;2023-01-15T04:15:46;72.03;;;39.85;;
42598;SDS011;28225;42.714;23.860;2023-01-15T04:18:11;71.78;;;36.30;;
42598;SDS011;28225;42.714;23.860;2023-01-15T04:20:37;61.95;;;33.22;;
42598;SDS011;28225;42.714;23.860;2023-01-15T04:23:02;61.65;;;33.83;;
42598;SDS011;28225;42.714;23.860;2023-01-15T04:25:28;55.88;;;30.08;;
42598;SDS011;28225;42.714;23.860;2023-01-15T04:27:53;64.78;;;34.05;;
42598;SDS011;28225;42.714;23.860;2023-01-15T04:30:19;68.22;;;34.25;;
42598;SDS011;28225;42.714;23.860;2023-01-15T04:32:48;61.80;;;35.53;;
42598;SDS011;28225;42.714;23.860;2023-01-15T04:35:15;63.97;;;33.45;;
42598;SDS011;28225;42.714;23.860;2023-01-15T04:37:40;74.28;;;37.20;;
42598;SDS011;28225;42.714;23.860;2023-01-15T04:40:06;76.97;;;41.38;;
42598;SDS011;28225;42.714;23.860;2023-01-15T04:42:32;81.18;;;43.90;;
42598;SDS011;28225;42.714;23.860;2023-01-15T04:45:16;79.78;;;42.47;;
42598;SDS011;28225;42.714;23.860;2023-01-15T04:47:42;77.53;;;41.53;;
42598;SDS011;28225;42.714;23.860;2023-01-15T04:50:07;79.13;;;43.05;;
42598;SDS011;28225;42.714;23.860;2023-01-15T04:52:34;87.55;;;47.30;;
42598;SDS011;28225;42.714;23.860;2023-01-15T04:55:00;77.63;;;40.42;;
42598;SDS011;28225;42.714;23.860;2023-01-15T04:57:25;71.78;;;39.13;;
42598;SDS011;28225;42.714;23.860;2023-01-15T04:59:51;64.68;;;37.88;;
42598;SDS011;28225;42.714;23.860;2023-01-15T05:02:16;83.40;;;44.70;;
42598;SDS011;28225;42.714;23.860;2023-01-15T05:04:41;69.25;;;38.15;;
42598;SDS011;28225;42.714;23.860;2023-01-15T05:07:08;71.45;;;38.92;;
42598;SDS011;28225;42.714;23.860;2023-01-15T05:09:33;70.90;;;37.28;;
42598;SDS011;28225;42.714;23.860;2023-01-15T05:11:59;74.57;;;40.15;;
42598;SDS011;28225;42.714;23.860;2023-01-15T05:14:25;71.00;;;39.22;;
42598;SDS011;28225;42.714;23.860;2023-01-15T05:16:50;66.57;;;39.50;;
42598;SDS011;28225;42.714;23.860;2023-01-15T05:19:16;67.72;;;39.30;;
42598;SDS011;28225;42.714;23.860;2023-01-15T05:21:42;73.72;;;41.83;;
42598;SDS011;28225;42.714;23.860;2023-01-15T05:24:10;73.72;;;41.05;;
42598;SDS011;28225;42.714;23.860;2023-01-15T05:26:38;71.60;;;38.42;;
42598;SDS011;28225;42.714;23.860;2023-01-15T05:29:04;73.22;;;41.50;;
42598;SDS011;28225;42.714;23.860;2023-01-15T05:31:30;72.50;;;40.97;;
42598;SDS011;28225;42.714;23.860;2023-01-15T05:33:57;79.95;;;42.97;;
42598;SDS011;28225;42.714;23.860;2023-01-15T05:36:24;78.88;;;42.47;;
42598;SDS011;28225;42.714;23.860;2023-01-15T05:38:53;77.35;;;43.28;;
42598;SDS011;28225;42.714;23.860;2023-01-15T05:41:19;78.32;;;41.78;;
42598;SDS011;28225;42.714;23.860;2023-01-15T05:44:05;74.00;;;39.83;;
42598;SDS011;28225;42.714;23.860;2023-01-15T05:46:35;83.68;;;43.97;;
42598;SDS011;28225;42.714;23.860;2023-01-15T05:49:03;80.82;;;44.80;;
42598;SDS011;28225;42.714;23.860;2023-01-15T05:51:29;79.10;;;43.50;;
42598;SDS011;28225;42.714;23.860;2023-01-15T05:53:56;79.53;;;45.97;;
42598;SDS011;28225;42.714;23.860;2023-01-15T05:56:22;77.97;;;45.38;;
42598;SDS011;28225;42.714;23.860;2023-01-15T05:58:47;78.57;;;41.10;;
42598;SDS011;28225;42.714;23.860;2023-01-15T06:01:13;73.88;;;39.20;;
42598;SDS011;28225;42.714;23.860;2023-01-15T06:03:39;59.67;;;33.60;;
42598;SDS011;28225;42.714;23.860;2023-01-15T06:06:05;81.80;;;43.85;;
42598;SDS011;28225;42.714;23.860;2023-01-15T06:08:31;71.10;;;36.50;;
42598;SDS011;28225;42.714;23.860;2023-01-15T06:10:56;69.70;;;34.97;;
42598;SDS011;28225;42.714;23.860;2023-01-15T06:13:22;70.30;;;39.10;;
42598;SDS011;28225;42.714;23.860;2023-01-15T06:15:47;68.95;;;37.88;;
42598;SDS011;28225;42.714;23.860;2023-01-15T06:18:13;59.60;;;29.35;;
42598;SDS011;28225;42.714;23.860;2023-01-15T06:20:39;44.45;;;25.42;;
42598;SDS011;28225;42.714;23.860;2023-01-15T06:23:05;51.05;;;25.15;;
42598;SDS011;28225;42.714;23.860;2023-01-15T06:25:34;37.85;;;20.45;;
42598;SDS011;28225;42.714;23.860;2023-01-15T06:28:04;64.35;;;34.05;;
42598;SDS011;28225;42.714;23.860;2023-01-15T06:30:30;81.22;;;40.90;;
42598;SDS011;28225;42.714;23.860;2023-01-15T06:32:56;66.15;;;36.00;;
42598;SDS011;28225;42.714;23.860;2023-01-15T06:35:21;66.80;;;35.13;;
42598;SDS011;28225;42.714;23.860;2023-01-15T06:37:50;58.83;;;32.92;;
42598;SDS011;28225;42.714;23.860;2023-01-15T06:40:15;57.53;;;32.40;;
42598;SDS011;28225;42.714;23.860;2023-01-15T06:42:41;48.58;;;26.95;;
42598;SDS011;28225;42.714;23.860;2023-01-15T06:45:25;37.35;;;20.65;;
42598;SDS011;28225;42.714;23.860;2023-01-15T06:48:09;35.60;;;21.50;;
42598;SDS011;28225;42.714;23.860;2023-01-15T06:50:35;30.38;;;18.90;;
42598;SDS011;28225;42.714;23.860;2023-01-15T06:53:00;57.22;;;33.15;;
42598;SDS011;28225;42.714;23.860;2023-01-15T06:55:26;152.35;;;78.65;;
42598;SDS011;28225;42.714;23.860;2023-01-15T06:57:51;188.23;;;90.20;;
42598;SDS011;28225;42.714;23.860;2023-01-15T07:00:17;76.40;;;42.53;;
42598;SDS011;28225;42.714;23.860;2023-01-15T07:02:42;68.95;;;42.00;;
42598;SDS011;28225;42.714;23.860;2023-01-15T07:05:08;70.80;;;39.58;;
42598;SDS011;28225;42.714;23.860;2023-01-15T07:07:34;54.40;;;30.33;;
42598;SDS011;28225;42.714;23.860;2023-01-15T07:09:59;73.32;;;40.22;;
42598;SDS011;28225;42.714;23.860;2023-01-15T07:12:24;68.20;;;42.42;;
42598;SDS011;28225;42.714;23.860;2023-01-15T07:14:50;50.63;;;28.92;;
42598;SDS011;28225;42.714;23.860;2023-01-15T07:17:16;49.25;;;27.95;;
42598;SDS011;28225;42.714;23.860;2023-01-15T07:19:41;61.78;;;32.92;;
42598;SDS011;28225;42.714;23.860;2023-01-15T07:22:07;63.80;;;33.22;;
42598;SDS011;28225;42.714;23.860;2023-01-15T07:24:33;42.95;;;25.80;;
42598;SDS011;28225;42.714;23.860;2023-01-15T07:26:59;46.45;;;25.23;;
42598;SDS011;28225;42.714;23.860;2023-01-15T07:29:24;34.03;;;18.73;;
42598;SDS011;28225;42.714;23.860;2023-01-15T07:31:50;35.42;;;21.35;;
42598;SDS011;28225;42.714;23.860;2023-01-15T07:34:15;39.13;;;20.45;;
42598;SDS011;28225;42.714;23.860;2023-01-15T07:36:41;34.50;;;20.20;;
42598;SDS011;28225;42.714;23.860;2023-01-15T07:39:07;32.38;;;19.38;;
42598;SDS011;28225;42.714;23.860;2023-01-15T07:41:33;32.38;;;16.90;;
42598;SDS011;28225;42.714;23.860;2023-01-15T07:44:18;27.45;;;15.25;;
42598;SDS011;28225;42.714;23.860;2023-01-15T07:47:02;23.98;;;14.45;;
42598;SDS011;28225;42.714;23.860;2023-01-15T07:49:46;24.70;;;15.77;;
42598;SDS011;28225;42.714;23.860;2023-01-15T07:52:16;27.15;;;15.65;;
42598;SDS011;28225;42.714;23.860;2023-01-15T07:54:43;28.75;;;15.90;;
42598;SDS011;28225;42.714;23.860;2023-01-15T07:57:09;31.92;;;19.80;;
42598;SDS011;28225;42.714;23.860;2023-01-15T07:59:35;30.65;;;18.33;;
42598;SDS011;28225;42.714;23.860;2023-01-15T08:02:01;24.92;;;15.15;;
42598;SDS011;28225;42.714;23.860;2023-01-15T08:04:27;28.00;;;17.30;;
42598;SDS011;28225;42.714;23.860;2023-01-15T08:06:52;24.15;;;15.15;;
42598;SDS011;28225;42.714;23.860;2023-01-15T08:09:18;28.52;;;16.45;;
42598;SDS011;28225;42.714;23.860;2023-01-15T08:11:43;21.80;;;13.73;;
42598;SDS011;28225;42.714;23.860;2023-01-15T08:14:27;24.15;;;16.35;;
42598;SDS011;28225;42.714;23.860;2023-01-15T08:17:11;28.52;;;16.65;;
42598;SDS011;28225;42.714;23.860;2023-01-15T08:19:37;24.15;;;15.02;;
42598;SDS011;28225;42.714;23.860;2023-01-15T08:22:02;31.25;;;19.08;;
42598;SDS011;28225;42.714;23.860;2023-01-15T08:24:28;35.60;;;19.80;;
42598;SDS011;28225;42.714;23.860;2023-01-15T08:26:53;25.10;;;15.30;;
42598;SDS011;28225;42.714;23.860;2023-01-15T08:29:19;31.17;;;16.60;;
42598;SDS011;28225;42.714;23.860;2023-01-15T08:31:45;28.48;;;14.73;;
42598;SDS011;28225;42.714;23.860;2023-01-15T08:34:11;28.77;;;18.50;;
42598;SDS011;28225;42.714;23.860;2023-01-15T08:36:36;28.85;;;18.50;;
42598;SDS011;28225;42.714;23.860;2023-01-15T08:39:02;29.77;;;18.33;;
42598;SDS011;28225;42.714;23.860;2023-01-15T08:41:27;29.08;;;18.02;;
42598;SDS011;28225;42.714;23.860;2023-01-15T08:43:53;29.75;;;17.90;;
42598;SDS011;28225;42.714;23.860;2023-01-15T08:46:18;26.85;;;16.65;;
42598;SDS011;28225;42.714;23.860;2023-01-15T08:48:44;37.30;;;20.98;;
42598;SDS011;28225;42.714;23.860;2023-01-15T08:51:10;30.92;;;18.02;;
42598;SDS011;28225;42.714;23.860;2023-01-15T08:53:36;20.65;;;13.77;;
42598;SDS011;28225;42.714;23.860;2023-01-15T08:56:02;23.48;;;15.98;;
42598;SDS011;28225;42.714;23.860;2023-01-15T08:58:28;23.75;;;12.60;;
42598;SDS011;28225;42.714;23.860;2023-01-15T09:00:55;19.45;;;11.82;;
42598;SDS011;28225;42.714;23.860;2023-01-15T09:03:20;24.23;;;14.07;;
42598;SDS011;28225;42.714;23.860;2023-01-15T09:05:46;21.73;;;12.85;;
42598;SDS011;28225;42.714;23.860;2023-01-15T09:08:12;23.52;;;12.10;;
42598;SDS011;28225;42.714;23.860;2023-01-15T09:10:37;19.98;;;11.75;;
42598;SDS011;28225;42.714;23.860;2023-01-15T09:13:03;18.92;;;11.07;;
42598;SDS011;28225;42.714;23.860;2023-01-15T09:15:29;17.80;;;10.38;;
42598;SDS011;28225;42.714;23.860;2023-01-15T09:17:56;19.10;;;11.68;;
42598;SDS011;28225;42.714;23.860;2023-01-15T09:20:22;13.73;;;9.65;;
42598;SDS011;28225;42.714;23.860;2023-01-15T09:22:47;13.40;;;8.82;;
42598;SDS011;28225;42.714;23.860;2023-01-15T09:25:14;19.15;;;10.38;;
42598;SDS011;28225;42.714;23.860;2023-01-15T09:27:44;31.23;;;17.60;;
42598;SDS011;28225;42.714;23.860;2023-01-15T09:30:13;19.98;;;12.02;;
42598;SDS011;28225;42.714;23.860;2023-01-15T09:32:41;13.95;;;8.05;;
42598;SDS011;28225;42.714;23.860;2023-01-15T09:35:07;36.53;;;30.58;;
42598;SDS011;28225;42.714;23.860;2023-01-15T09:37:33;19.88;;;11.68;;
42598;SDS011;28225;42.714;23.860;2023-01-15T09:39:58;11.52;;;7.28;;
42598;SDS011;28225;42.714;23.860;2023-01-15T09:47:36;17.00;;;10.52;;
42598;SDS011;28225;42.714;23.860;2023-01-15T09:50:20;14.98;;;8.98;;
42598;SDS011;28225;42.714;23.860;2023-01-15T09:55:46;15.27;;;7.33;;
42598;SDS011;28225;42.714;23.860;2023-01-15T09:58:14;15.07;;;9.63;;
42598;SDS011;28225;42.714;23.860;2023-01-15T10:00:43;12.25;;;8.77;;
42598;SDS011;28225;42.714;23.860;2023-01-15T10:08:44;13.20;;;7.72;;
42598;SDS011;28225;42.714;23.860;2023-01-15T10:11:19;11.15;;;7.72;;
42598;SDS011;28225;42.714;23.860;2023-01-15T10:16:32;11.50;;;7.18;;
42598;SDS011;28225;42.714;23.860;2023-01-15T10:18:57;9.27;;;6.75;;
42598;SDS011;28225;42.714;23.860;2023-01-15T10:26:34;10.70;;;6.03;;
42598;SDS011;28225;42.714;23.860;2023-01-15T10:29:40;7.97;;;5.43;;
42598;SDS011;28225;42.714;23.860;2023-01-15T10:35:25;11.02;;;7.05;;
42598;SDS011;28225;42.714;23.860;2023-01-15T10:44:00;8.57;;;5.88;;
42598;SDS011;28225;42.714;23.860;2023-01-15T10:46:32;7.50;;;5.13;;
42598;SDS011;28225;42.714;23.860;2023-01-15T10:49:25;9.00;;;5.40;;
42598;SDS011;28225;42.714;23.860;2023-01-15T10:51:54;9.07;;;5.65;;
42598;SDS011;28225;42.714;23.860;2023-01-15T11:02:20;8.48;;;5.28;;
42598;SDS011;28225;42.714;23.860;2023-01-15T11:04:49;8.43;;;5.07;;
42598;SDS011;28225;42.714;23.860;2023-01-15T11:07:15;7.03;;;5.00;;
42598;SDS011;28225;42.714;23.860;2023-01-15T11:09:41;9.43;;;6.30;;
42598;SDS011;28225;42.714;23.860;2023-01-15T11:14:48;8.80;;;5.20;;
42598;SDS011;28225;42.714;23.860;2023-01-15T11:17:42;4.85;;;3.65;;
42598;SDS011;28225;42.714;23.860;2023-01-15T11:23:19;10.25;;;5.10;;
42598;SDS011;28225;42.714;23.860;2023-01-15T11:26:02;7.28;;;4.93;;
42598;SDS011;28225;42.714;23.860;2023-01-15T11:28:29;8.93;;;5.18;;
42598;SDS011;28225;42.714;23.860;2023-01-15T11:31:00;6.40;;;4.60;;
42598;SDS011;28225;42.714;23.860;2023-01-15T11:33:27;8.73;;;5.13;;
42598;SDS011;28225;42.714;23.860;2023-01-15T11:35:54;6.43;;;4.32;;
42598;SDS011;28225;42.714;23.860;2023-01-15T11:38:22;7.53;;;4.38;;
42598;SDS011;28225;42.714;23.860;2023-01-15T11:40:56;11.00;;;6.95;;
42598;SDS011;28225;42.714;23.860;2023-01-15T11:43:25;4.68;;;3.30;;
42598;SDS011;28225;42.714;23.860;2023-01-15T11:46:29;12.48;;;5.75;;
42598;SDS011;28225;42.714;23.860;2023-01-15T11:49:19;7.20;;;4.90;;
42598;SDS011;28225;42.714;23.860;2023-01-15T11:52:12;5.93;;;4.20;;
42598;SDS011;28225;42.714;23.860;2023-01-15T11:54:42;8.90;;;4.80;;
42598;SDS011;28225;42.714;23.860;2023-01-15T11:57:10;6.72;;;4.50;;
42598;SDS011;28225;42.714;23.860;2023-01-15T11:59:36;5.88;;;3.88;;
42598;SDS011;28225;42.714;23.860;2023-01-15T12:02:10;4.40;;;3.00;;
42598;SDS011;28225;42.714;23.860;2023-01-15T12:04:58;7.50;;;4.93;;
42598;SDS011;28225;42.714;23.860;2023-01-15T12:07:24;6.85;;;4.78;;
42598;SDS011;28225;42.714;23.860;2023-01-15T12:13:29;6.30;;;3.95;;
42598;SDS011;28225;42.714;23.860;2023-01-15T12:26:27;3.00;;;2.70;;
42598;SDS011;28225;42.714;23.860;2023-01-15T12:31:39;6.57;;;3.72;;
42598;SDS011;28225;42.714;23.860;2023-01-15T12:34:13;4.03;;;3.28;;
42598;SDS011;28225;42.714;23.860;2023-01-15T12:39:25;5.38;;;3.28;;
42598;SDS011;28225;42.714;23.860;2023-01-15T12:41:53;8.82;;;4.38;;
42598;SDS011;28225;42.714;23.860;2023-01-15T12:50:27;5.13;;;3.78;;
42598;SDS011;28225;42.714;23.860;2023-01-15T12:58:44;5.53;;;4.55;;
42598;SDS011;28225;42.714;23.860;2023-01-15T13:06:46;7.28;;;4.35;;
42598;SDS011;28225;42.714;23.860;2023-01-15T13:09:17;7.65;;;4.20;;
42598;SDS011;28225;42.714;23.860;2023-01-15T13:11:46;3.78;;;3.05;;
42598;SDS011;28225;42.714;23.860;2023-01-15T13:14:14;5.78;;;4.57;;
42598;SDS011;28225;42.714;23.860;2023-01-15T13:22:28;7.65;;;4.85;;
42598;SDS011;28225;42.714;23.860;2023-01-15T13:24:59;4.63;;;3.53;;
42598;SDS011;28225;42.714;23.860;2023-01-15T13:28:00;4.03;;;3.63;;
42598;SDS011;28225;42.714;23.860;2023-01-15T13:35:55;6.47;;;3.75;;
42598;SDS011;28225;42.714;23.860;2023-01-15T13:38:42;4.80;;;3.40;;
42598;SDS011;28225;42.714;23.860;2023-01-15T13:41:11;6.05;;;4.13;;
42598;SDS011;28225;42.714;23.860;2023-01-15T13:44:04;4.18;;;3.58;;
42598;SDS011;28225;42.714;23.860;2023-01-15T13:46:30;3.72;;;3.15;;
42598;SDS011;28225;42.714;23.860;2023-01-15T13:48:56;4.45;;;3.55;;
42598;SDS011;28225;42.714;23.860;2023-01-15T13:53:47;6.70;;;4.78;;
42598;SDS011;28225;42.714;23.860;2023-01-15T13:56:23;6.35;;;4.05;;
42598;SDS011;28225;42.714;23.860;2023-01-15T14:04:30;5.50;;;4.53;;
42598;SDS011;28225;42.714;23.860;2023-01-15T14:15:02;8.27;;;5.03;;
42598;SDS011;28225;42.714;23.860;2023-01-15T14:17:53;9.57;;;5.35;;
42598;SDS011;28225;42.714;23.860;2023-01-15T14:23:29;7.28;;;5.57;;
42598;SDS011;28225;42.714;23.860;2023-01-15T14:26:09;9.45;;;6.25;;
42598;SDS011;28225;42.714;23.860;2023-01-15T14:28:58;10.85;;;6.93;;
42598;SDS011;28225;42.714;23.860;2023-01-15T14:34:35;8.85;;;5.30;;
42598;SDS011;28225;42.714;23.860;2023-01-15T14:39:52;8.77;;;6.18;;
42598;SDS011;28225;42.714;23.860;2023-01-15T14:42:27;8.50;;;6.38;;
42598;SDS011;28225;42.714;23.860;2023-01-15T14:50:53;8.98;;;6.50;;
42598;SDS011;28225;42.714;23.860;2023-01-15T14:53:35;10.90;;;6.43;;
42598;SDS011;28225;42.714;23.860;2023-01-15T15:00:53;13.93;;;8.10;;
42598;SDS011;28225;42.714;23.860;2023-01-15T15:03:25;20.83;;;11.77;;
42598;SDS011;28225;42.714;23.860;2023-01-15T15:05:58;22.52;;;8.05;;
42598;SDS011;28225;42.714;23.860;2023-01-15T15:08:24;17.98;;;11.75;;
42598;SDS011;28225;42.714;23.860;2023-01-15T15:10:54;15.18;;;9.93;;
42598;SDS011;28225;42.714;23.860;2023-01-15T15:16:11;16.42;;;9.18;;
42598;SDS011;28225;42.714;23.860;2023-01-15T15:18:46;13.85;;;8.65;;
42598;SDS011;28225;42.714;23.860;2023-01-15T15:21:37;9.25;;;6.13;;
42598;SDS011;28225;42.714;23.860;2023-01-15T15:26:38;12.77;;;8.07;;
42598;SDS011;28225;42.714;23.860;2023-01-15T15:29:04;10.60;;;7.05;;
42598;SDS011;28225;42.714;23.860;2023-01-15T15:31:34;14.57;;;8.48;;
42598;SDS011;28225;42.714;23.860;2023-01-15T15:34:04;11.38;;;7.20;;
42598;SDS011;28225;42.714;23.860;2023-01-15T15:36:34;12.05;;;6.90;;
42598;SDS011;28225;42.714;23.860;2023-01-15T15:39:02;12.98;;;8.02;;
42598;SDS011;28225;42.714;23.860;2023-01-15T15:41:48;15.40;;;10.70;;
42598;SDS011;28225;42.714;23.860;2023-01-15T15:44:35;17.17;;;10.70;;
42598;SDS011;28225;42.714;23.860;2023-01-15T15:47:38;19.95;;;13.68;;
42598;SDS011;28225;42.714;23.860;2023-01-15T15:52:51;21.80;;;12.30;;
42598;SDS011;28225;42.714;23.860;2023-01-15T15:55:17;21.35;;;12.98;;
42598;SDS011;28225;42.714;23.860;2023-01-15T15:57:44;14.38;;;9.82;;
42598;SDS011;28225;42.714;23.860;2023-01-15T16:00:19;12.40;;;8.02;;
42598;SDS011;28225;42.714;23.860;2023-01-15T16:03:14;11.75;;;8.05;;
42598;SDS011;28225;42.714;23.860;2023-01-15T16:05:52;22.77;;;13.48;;
42598;SDS011;28225;42.714;23.860;2023-01-15T16:08:29;11.25;;;7.22;;
42598;SDS011;28225;42.714;23.860;2023-01-15T16:10:59;12.10;;;8.80;;
42598;SDS011;28225;42.714;23.860;2023-01-15T16:15:54;10.55;;;6.78;;
42598;SDS011;28225;42.714;23.860;2023-01-15T16:18:27;9.82;;;7.03;;
42598;SDS011;28225;42.714;23.860;2023-01-15T16:20:56;9.93;;;6.80;;
42598;SDS011;28225;42.714;23.860;2023-01-15T16:23:23;12.07;;;8.00;;
42598;SDS011;28225;42.714;23.860;2023-01-15T16:28:49;12.85;;;8.00;;
42598;SDS011;28225;42.714;23.860;2023-01-15T16:31:17;11.48;;;7.57;;
42598;SDS011;28225;42.714;23.860;2023-01-15T16:33:43;14.20;;;8.50;;
42598;SDS011;28225;42.714;23.860;2023-01-15T16:36:09;11.65;;;9.15;;
42598;SDS011;28225;42.714;23.860;2023-01-15T16:38:45;11.23;;;6.90;;
42598;SDS011;28225;42.714;23.860;2023-01-15T16:41:36;12.00;;;7.10;;
42598;SDS011;28225;42.714;23.860;2023-01-15T16:44:02;12.02;;;6.18;;
42598;SDS011;28225;42.714;23.860;2023-01-15T16:46:30;13.40;;;8.38;;
42598;SDS011;28225;42.714;23.860;2023-01-15T16:51:55;17.33;;;9.30;;
42598;SDS011;28225;42.714;23.860;2023-01-15T16:56:53;10.50;;;6.75;;
42598;SDS011;28225;42.714;23.860;2023-01-15T17:01:51;10.00;;;7.15;;
42598;SDS011;28225;42.714;23.860;2023-01-15T17:04:30;13.13;;;8.68;;
42598;SDS011;28225;42.714;23.860;2023-01-15T17:07:00;12.68;;;7.47;;
42598;SDS011;28225;42.714;23.860;2023-01-15T17:09:34;6.80;;;5.03;;
42598;SDS011;28225;42.714;23.860;2023-01-15T17:12:08;11.70;;;7.95;;
42598;SDS011;28225;42.714;23.860;2023-01-15T17:14:43;12.50;;;8.73;;
42598;SDS011;28225;42.714;23.860;2023-01-15T17:19:40;16.35;;;10.43;;
42598;SDS011;28225;42.714;23.860;2023-01-15T17:22:06;14.38;;;8.48;;
42598;SDS011;28225;42.714;23.860;2023-01-15T17:24:45;13.63;;;8.88;;
42598;SDS011;28225;42.714;23.860;2023-01-15T17:27:14;13.57;;;8.93;;
42598;SDS011;28225;42.714;23.860;2023-01-15T17:29:39;15.98;;;8.80;;
42598;SDS011;28225;42.714;23.860;2023-01-15T17:32:05;14.70;;;8.00;;
42598;SDS011;28225;42.714;23.860;2023-01-15T17:34:30;31.17;;;18.27;;
42598;SDS011;28225;42.714;23.860;2023-01-15T17:36:57;18.73;;;12.80;;
42598;SDS011;28225;42.714;23.860;2023-01-15T17:39:23;39.08;;;20.30;;
42598;SDS011;28225;42.714;23.860;2023-01-15T17:41:48;16.88;;;9.85;;
42598;SDS011;28225;42.714;23.860;2023-01-15T17:44:14;13.10;;;8.55;;
42598;SDS011;28225;42.714;23.860;2023-01-15T17:46:39;14.60;;;8.65;;